createdAt,value
2023-05-22T00:01:55.998Z,78.6029
2023-05-22T00:02:57.481Z,79.1862
2023-05-22T00:03:57.591Z,79.2828
2023-05-22T00:04:58.426Z,79.5322
2023-05-22T00:05:59.139Z,79.7150
2023-05-22T00:06:59.744Z,79.0070
2023-05-22T00:09:01.032Z,78.5021
2023-05-22T00:10:01.202Z,79.1816
2023-05-22T00:11:02.335Z,79.4219
2023-05-22T00:13:03.199Z,79.5196
2023-05-22T00:15:03.874Z,80.3213
2023-05-22T00:17:04.631Z,80.5059
2023-05-22T00:18:05.499Z,79.9434
2023-05-22T00:19:05.928Z,81.1442
2023-05-22T00:20:07.485Z,82.3383
2023-05-22T00:26:11.501Z,85.1093
2023-05-22T00:27:12.615Z,85.5025
2023-05-22T00:30:43.823Z,86.8850
2023-05-22T00:36:29.868Z,87.9279
2023-05-22T00:37:31.692Z,88.2763
2023-05-22T00:38:32.560Z,88.5108
2023-05-22T00:44:23.796Z,89.6188
2023-05-22T00:45:25.051Z,89.8219
2023-05-22T00:46:26.864Z,90.0016
2023-05-22T00:47:27.277Z,90.1123
2023-05-22T00:48:28.060Z,89.9281
2023-05-22T00:49:29.856Z,89.7275
2023-05-22T00:50:31.249Z,89.5795
2023-05-22T00:59:44.012Z,86.1119
2023-05-22T01:05:16.850Z,84.8586
2023-05-22T01:18:02.572Z,84.1908
2023-05-22T01:20:03.673Z,83.8074
2023-05-22T01:21:10.562Z,84.0784
2023-05-22T01:22:10.691Z,84.7429
2023-05-22T01:23:11.657Z,85.7785
2023-05-22T01:24:12.474Z,85.2290
2023-05-22T01:25:14.168Z,85.7691
2023-05-22T01:26:13.237Z,86.0534
2023-05-22T01:27:14.217Z,86.9847
2023-05-22T01:28:14.532Z,86.3901
2023-05-22T01:29:15.467Z,84.4137
2023-05-22T01:30:17.257Z,86.2590
2023-05-22T01:31:18.084Z,86.4984
2023-05-22T01:33:23.504Z,85.7881
2023-05-22T01:34:24.404Z,86.6712
2023-05-22T01:36:29.514Z,85.5463
2023-05-22T01:39:29.769Z,86.7173
2023-05-22T01:42:31.953Z,87.5084
2023-05-22T01:43:32.921Z,87.6862
2023-05-22T01:45:33.736Z,88.6999
2023-05-22T01:50:36.204Z,88.9475
2023-05-22T01:51:36.752Z,88.4486
2023-05-22T01:52:37.585Z,88.2255
2023-05-22T01:53:39.098Z,87.7608
2023-05-22T02:00:44.173Z,89.9152
2023-05-22T02:01:44.651Z,90.3708
2023-05-22T02:02:45.340Z,90.6715
2023-05-22T02:03:45.987Z,91.1592
2023-05-22T02:04:45.969Z,91.1947
2023-05-22T02:05:46.890Z,90.9807
2023-05-22T02:06:47.118Z,90.4440
2023-05-22T02:07:48.043Z,90.6663
2023-05-22T02:08:48.584Z,90.7797
2023-05-22T02:09:48.775Z,91.2275
2023-05-22T02:10:50.535Z,91.6388
2023-05-22T02:11:50.802Z,91.9087
2023-05-22T02:13:53.992Z,90.4231
2023-05-22T02:15:54.796Z,90.5448
2023-05-22T02:16:55.685Z,91.0452
2023-05-22T02:17:56.295Z,91.5212
2023-05-22T02:19:59.977Z,91.5142
2023-05-22T02:21:00.453Z,91.0905
2023-05-22T02:22:00.640Z,90.1780
2023-05-22T02:23:02.741Z,89.9593
2023-05-22T02:24:03.117Z,90.1240
2023-05-22T02:25:03.391Z,90.2629
2023-05-22T02:26:04.993Z,89.9632
2023-05-22T02:27:05.111Z,89.9106
2023-05-22T02:32:09.543Z,91.6594
2023-05-22T02:33:10.687Z,91.0951
2023-05-22T02:34:10.625Z,90.2080
2023-05-22T02:35:12.637Z,90.4473
2023-05-22T02:40:15.557Z,90.6451
2023-05-22T02:41:15.939Z,90.1219
2023-05-22T02:42:16.636Z,90.8183
2023-05-22T02:43:17.279Z,91.2829
2023-05-22T02:44:17.638Z,91.7165
2023-05-22T02:45:19.288Z,91.3725
2023-05-22T02:46:20.767Z,91.1555
2023-05-22T02:56:24.758Z,88.6474
2023-05-22T02:57:25.728Z,87.9724
2023-05-22T02:58:27.070Z,88.6314
2023-05-22T02:59:28.259Z,89.5764
2023-05-22T03:00:28.712Z,89.9620
2023-05-22T03:01:30.365Z,90.1922
2023-05-22T03:02:31.563Z,90.5100
2023-05-22T03:03:32.581Z,90.0186
2023-05-22T03:04:32.915Z,90.2243
2023-05-22T03:05:34.001Z,90.5435
2023-05-22T03:14:40.779Z,91.5709
2023-05-22T03:15:40.933Z,91.4229
2023-05-22T03:16:41.221Z,91.8721
2023-05-22T03:17:41.902Z,92.1968
2023-05-22T03:18:40.930Z,92.3822
2023-05-22T03:19:42.251Z,92.6997
2023-05-22T03:20:42.953Z,92.9400
2023-05-22T03:21:43.876Z,93.2034
2023-05-22T03:22:44.749Z,93.1532
2023-05-22T03:23:46.681Z,93.1770
2023-05-22T03:24:46.913Z,92.7425
2023-05-22T03:25:47.541Z,91.8400
2023-05-22T03:26:49.402Z,91.4998
2023-05-22T03:27:50.392Z,90.9348
2023-05-22T03:30:52.832Z,92.3785
2023-05-22T03:32:53.492Z,92.8426
2023-05-22T03:33:53.733Z,92.8901
2023-05-22T03:34:54.259Z,92.9020
2023-05-22T03:35:54.389Z,93.0515
2023-05-22T03:37:57.882Z,93.4733
2023-05-22T03:41:00.417Z,91.9382
2023-05-22T03:42:02.006Z,91.7980
2023-05-22T03:46:48.017Z,92.7391
2023-05-22T03:47:48.982Z,92.8342
2023-05-22T03:49:49.974Z,92.9555
2023-05-22T03:54:54.094Z,93.0278
2023-05-22T03:55:54.210Z,92.8926
2023-05-22T03:57:55.942Z,92.4792
2023-05-22T03:58:56.615Z,91.7751
2023-05-22T04:06:59.042Z,89.2079
2023-05-22T04:07:59.445Z,89.8523
2023-05-22T04:09:00.356Z,90.0382
2023-05-22T04:10:00.467Z,90.3372
2023-05-22T04:11:01.368Z,90.8166
2023-05-22T04:12:02.066Z,91.3811
2023-05-22T04:13:02.256Z,91.7414
2023-05-22T04:14:03.284Z,91.8714
2023-05-22T04:15:03.220Z,91.9930
2023-05-22T04:16:03.508Z,91.9520
2023-05-22T04:17:03.620Z,91.7846
2023-05-22T04:18:04.359Z,91.5652
2023-05-22T04:26:14.381Z,89.3640
2023-05-22T04:27:14.447Z,89.1294
2023-05-22T04:28:17.110Z,89.0402
2023-05-22T04:34:22.129Z,88.4496
2023-05-22T04:35:22.205Z,88.2463
2023-05-22T04:36:23.290Z,88.1515
2023-05-22T04:37:23.447Z,88.0929
2023-05-22T04:38:24.209Z,88.4677
2023-05-22T04:39:25.488Z,88.8442
2023-05-22T04:40:26.772Z,88.8865
2023-05-22T04:42:27.611Z,88.9272
2023-05-22T04:43:27.934Z,88.9129
2023-05-22T04:44:28.242Z,89.3269
2023-05-22T04:45:29.030Z,89.6592
2023-05-22T04:46:29.875Z,89.7098
2023-05-22T04:47:31.026Z,89.8094
2023-05-22T04:48:32.815Z,90.3825
2023-05-22T04:49:34.049Z,90.1021
2023-05-22T04:50:34.103Z,90.0486
2023-05-22T04:51:35.771Z,90.2333
2023-05-22T04:52:36.995Z,90.3893
2023-05-22T04:54:38.448Z,89.9185
2023-05-22T04:55:38.846Z,89.7728
2023-05-22T04:56:39.403Z,89.9436
2023-05-22T04:57:41.682Z,89.8017
2023-05-22T05:03:45.534Z,88.2720
2023-05-22T05:04:46.250Z,87.9921
2023-05-22T05:05:46.375Z,88.3967
2023-05-22T05:06:47.862Z,87.8430
2023-05-22T05:07:50.113Z,85.3999
2023-05-22T05:08:49.282Z,83.7498
2023-05-22T05:09:49.923Z,80.8936
2023-05-22T05:11:50.030Z,79.4207
2023-05-22T05:12:50.279Z,78.3867
2023-05-22T05:13:51.002Z,75.3998
2023-05-22T05:14:51.686Z,75.0509
2023-05-22T05:15:52.100Z,72.7686
2023-05-22T05:17:54.509Z,71.9936
2023-05-22T05:18:55.502Z,71.9732
2023-05-22T05:23:57.503Z,71.8236
2023-05-22T05:24:57.640Z,71.0909
2023-05-22T05:25:58.658Z,68.0858
2023-05-22T05:27:00.283Z,69.8023
2023-05-22T05:28:00.869Z,69.8003
2023-05-22T05:29:02.559Z,68.0745
2023-05-22T05:30:03.293Z,70.5488
2023-05-22T05:32:03.956Z,70.5648
2023-05-22T05:33:04.281Z,68.9505
2023-05-22T05:34:05.207Z,68.5495
2023-05-22T05:35:05.232Z,65.9659
2023-05-22T05:36:06.542Z,67.0931
2023-05-22T05:37:07.407Z,65.1990
2023-05-22T05:38:07.796Z,63.3460
2023-05-22T05:39:08.052Z,62.7141
2023-05-22T05:40:08.356Z,60.8638
2023-05-22T05:41:09.063Z,62.7927
2023-05-22T05:42:09.126Z,61.6520
2023-05-22T05:43:10.071Z,61.5573
2023-05-22T05:44:11.605Z,61.6889
2023-05-22T05:45:11.810Z,60.5240
2023-05-22T05:46:12.156Z,66.4163
2023-05-22T05:47:12.890Z,67.5133
2023-05-22T05:48:13.445Z,64.2912
2023-05-22T05:49:14.738Z,63.2780
2023-05-22T05:50:15.655Z,63.0520
2023-05-22T05:51:16.013Z,60.7116
2023-05-22T05:52:16.165Z,60.8593
2023-05-22T05:53:17.278Z,60.7018
2023-05-22T05:54:17.945Z,61.4577
2023-05-22T05:55:17.997Z,63.5926
2023-05-22T05:56:19.433Z,63.3804
2023-05-22T05:57:19.524Z,62.8933
2023-05-22T05:58:20.513Z,65.4750
2023-05-22T05:59:21.351Z,66.9928
2023-05-22T06:00:21.450Z,65.1904
2023-05-22T06:02:24.002Z,66.5116
2023-05-22T06:03:24.533Z,67.2813
2023-05-22T06:05:26.935Z,67.5206
2023-05-22T06:09:27.232Z,65.6393
2023-05-22T06:10:28.406Z,64.2573
2023-05-22T06:11:28.469Z,65.7934
2023-05-22T06:12:29.257Z,67.0236
2023-05-22T06:17:31.102Z,60.1482
2023-05-22T06:18:32.134Z,60.6559
2023-05-22T06:19:33.057Z,60.8704
2023-05-22T06:21:33.622Z,62.2987
2023-05-22T06:29:38.647Z,61.4792
2023-05-22T06:30:40.894Z,62.2484
2023-05-22T06:31:43.760Z,65.1472
2023-05-22T06:33:42.633Z,62.5489
2023-05-22T06:34:43.193Z,65.0273
2023-05-22T06:35:44.306Z,62.2031
2023-05-22T06:36:45.388Z,65.5028
2023-05-22T06:37:46.336Z,65.5362
2023-05-22T06:38:47.348Z,65.4845
2023-05-22T06:39:48.701Z,65.0143
2023-05-22T06:46:52.122Z,64.9050
2023-05-22T06:47:53.593Z,64.5168
2023-05-22T06:48:54.311Z,65.1754
2023-05-22T06:51:54.477Z,63.4774
2023-05-22T06:53:56.026Z,63.5275
2023-05-22T06:56:58.071Z,61.7660
2023-05-22T06:57:59.475Z,60.8490
2023-05-22T06:59:00.049Z,63.0947
2023-05-22T07:00:00.639Z,62.6111
2023-05-22T07:01:02.386Z,61.0639
2023-05-22T07:02:03.428Z,60.7158
2023-05-22T07:03:04.577Z,62.0930
2023-05-22T07:04:06.188Z,62.2948
2023-05-22T07:05:07.493Z,60.6389
2023-05-22T07:07:06.880Z,61.0262
2023-05-22T07:10:07.384Z,62.6965
2023-05-22T07:11:07.781Z,63.0583
2023-05-22T07:12:08.854Z,64.1434
2023-05-22T07:13:10.049Z,65.1754
2023-05-22T07:14:10.868Z,64.5907
2023-05-22T07:15:11.915Z,64.5485
2023-05-22T07:16:13.005Z,65.6282
2023-05-22T07:17:14.044Z,64.9372
2023-05-22T07:24:19.412Z,62.1231
2023-05-22T07:25:20.446Z,62.5190
2023-05-22T07:26:21.425Z,64.3567
2023-05-22T07:27:22.357Z,62.0509
2023-05-22T07:28:23.352Z,61.4212
2023-05-22T07:29:25.026Z,62.5639
2023-05-22T07:30:26.285Z,62.8842
2023-05-22T07:31:27.341Z,61.6123
2023-05-22T07:32:28.387Z,60.1839
2023-05-22T07:33:29.502Z,62.7129
2023-05-22T07:34:30.608Z,61.0815
2023-05-22T07:35:31.817Z,58.2360
2023-05-22T07:36:32.619Z,59.9663
2023-05-22T07:37:33.620Z,61.6901
2023-05-22T07:38:34.545Z,62.1455
2023-05-22T07:39:35.549Z,63.0365
2023-05-22T07:40:36.463Z,62.0741
2023-05-22T07:41:37.650Z,61.2441
2023-05-22T07:42:38.682Z,62.6416
2023-05-22T07:43:39.689Z,62.1949
2023-05-22T07:44:40.851Z,60.3181
2023-05-22T07:45:41.906Z,58.6896
2023-05-22T07:46:41.938Z,59.8594
2023-05-22T07:47:42.216Z,60.9657
2023-05-22T07:48:43.020Z,61.8012
2023-05-22T07:49:43.039Z,62.1236
2023-05-22T07:50:44.243Z,62.3307
2023-05-22T07:51:45.293Z,61.7849
2023-05-22T07:52:46.065Z,61.0103
2023-05-22T07:54:48.123Z,61.3965
2023-05-22T07:55:49.192Z,60.0551
2023-05-22T07:56:50.288Z,61.5830
2023-05-22T07:57:50.743Z,61.9869
2023-05-22T07:58:52.014Z,61.7619
2023-05-22T07:59:53.030Z,61.1438
2023-05-22T08:00:53.923Z,60.6138
2023-05-22T08:01:57.416Z,58.8970
2023-05-22T08:02:55.060Z,55.9746
2023-05-22T08:03:57.065Z,59.2563
2023-05-22T08:04:57.018Z,59.4930
2023-05-22T08:05:57.013Z,56.7971
2023-05-22T08:06:58.064Z,56.8098
2023-05-22T08:07:59.085Z,56.6073
2023-05-22T08:09:00.035Z,56.1458
2023-05-22T08:10:00.633Z,57.0348
2023-05-22T08:11:03.800Z,58.7974
2023-05-22T08:14:02.658Z,58.5293
2023-05-22T08:15:03.964Z,60.1591
2023-05-22T08:16:04.825Z,60.7214
2023-05-22T08:17:05.083Z,59.8908
2023-05-22T08:18:06.237Z,58.8506
2023-05-22T08:19:07.755Z,56.1567
2023-05-22T08:20:08.070Z,57.5591
2023-05-22T08:21:08.399Z,56.6748
2023-05-22T08:22:08.296Z,55.4695
2023-05-22T08:23:09.530Z,57.1787
2023-05-22T08:24:10.625Z,55.0329
2023-05-22T08:25:11.657Z,54.9842
2023-05-22T08:26:12.639Z,56.4507
2023-05-22T08:27:13.578Z,58.2690
2023-05-22T08:29:15.310Z,56.9823
2023-05-22T08:30:16.323Z,55.1964
2023-05-22T08:31:17.727Z,57.0177
2023-05-22T08:32:18.933Z,57.7226
2023-05-22T08:33:19.363Z,57.3632
2023-05-22T08:34:19.578Z,56.6250
2023-05-22T08:35:20.523Z,55.2926
2023-05-22T08:36:21.450Z,54.9731
2023-05-22T08:37:22.408Z,55.8392
2023-05-22T08:38:23.455Z,56.1326
2023-05-22T09:08:50.087Z,53.7263
2023-05-22T09:09:48.506Z,55.7447
2023-05-22T09:10:48.987Z,55.6633
2023-05-22T09:11:49.885Z,55.8520
2023-05-22T09:12:51.060Z,53.6984
2023-05-22T09:15:52.532Z,52.3008
2023-05-22T09:16:53.018Z,55.0432
2023-05-22T09:17:54.208Z,55.6313
2023-05-22T09:18:55.575Z,54.5865
2023-05-22T09:21:57.465Z,54.4815
2023-05-22T09:22:58.419Z,53.9790
2023-05-22T09:23:59.423Z,54.4519
2023-05-22T09:25:00.541Z,53.6302
2023-05-22T09:26:01.514Z,53.0058
2023-05-22T09:27:02.523Z,53.6346
2023-05-22T09:28:03.434Z,54.8677
2023-05-22T09:29:04.359Z,53.4073
2023-05-22T09:30:05.236Z,53.5911
2023-05-22T09:31:06.448Z,52.8346
2023-05-22T09:32:06.358Z,53.4970
2023-05-22T09:33:07.562Z,52.8938
2023-05-22T09:34:07.604Z,50.5281
2023-05-22T09:35:08.846Z,50.5277
2023-05-22T09:36:09.688Z,51.0428
2023-05-22T09:37:10.548Z,49.7708
2023-05-22T09:38:12.207Z,51.1714
2023-05-22T09:39:12.126Z,54.1352
2023-05-22T09:40:13.112Z,52.4710
2023-05-22T09:41:13.960Z,52.8748
2023-05-22T09:42:14.887Z,51.9439
2023-05-22T09:43:15.882Z,52.4355
2023-05-22T09:44:17.842Z,49.8094
2023-05-22T09:45:17.711Z,49.6209
2023-05-22T09:46:18.844Z,51.5305
2023-05-22T09:47:19.174Z,52.0372
2023-05-22T09:50:20.637Z,50.9974
2023-05-22T09:51:21.542Z,51.8508
2023-05-22T09:52:22.491Z,51.2637
2023-05-22T09:53:23.431Z,50.2928
2023-05-22T09:54:24.543Z,48.5916
2023-05-22T09:55:25.514Z,51.3441
2023-05-22T09:56:38.502Z,51.3161
2023-05-22T09:57:31.552Z,51.8357
2023-05-22T09:58:32.323Z,51.2845
2023-05-22T09:59:33.214Z,50.5636
2023-05-22T10:00:34.133Z,50.4989
2023-05-22T10:01:35.078Z,47.0060
2023-05-22T10:02:36.198Z,47.7783
2023-05-22T10:03:37.266Z,44.8112
2023-05-22T10:04:38.474Z,49.9348
2023-05-22T10:05:39.502Z,51.9325
2023-05-22T10:06:40.572Z,49.5673
2023-05-22T10:07:41.524Z,47.3970
2023-05-22T10:08:42.430Z,47.0554
2023-05-22T10:09:42.775Z,47.8310
2023-05-22T10:10:43.956Z,46.5055
2023-05-22T10:11:45.015Z,50.2874
2023-05-22T10:12:45.974Z,51.0841
2023-05-22T10:13:46.757Z,52.2097
2023-05-22T10:14:46.815Z,52.7668
2023-05-22T10:15:47.905Z,52.1421
2023-05-22T10:16:48.265Z,52.6779
2023-05-22T10:17:48.448Z,51.7846
2023-05-22T10:18:49.259Z,51.4097
2023-05-22T10:19:50.087Z,51.9992
2023-05-22T10:20:50.905Z,48.7570
2023-05-22T10:21:52.099Z,47.9932
2023-05-22T10:22:52.966Z,46.0865
2023-05-22T10:23:54.060Z,46.6800
2023-05-22T10:24:55.105Z,44.6926
2023-05-22T10:25:56.146Z,47.5647
2023-05-22T10:26:57.007Z,48.7684
2023-05-22T10:27:58.004Z,46.4943
2023-05-22T10:28:59.068Z,48.4829
2023-05-22T10:30:00.127Z,48.3667
2023-05-22T10:31:01.256Z,48.7412
2023-05-22T10:32:02.264Z,50.8074
2023-05-22T10:33:03.589Z,46.4531
2023-05-22T10:34:03.470Z,49.3535
2023-05-22T10:35:03.510Z,49.0602
2023-05-22T10:37:16.608Z,50.0647
2023-05-22T10:38:05.922Z,48.4902
2023-05-22T10:39:06.823Z,48.0915
2023-05-22T10:40:07.734Z,46.5225
2023-05-22T10:41:08.600Z,47.7618
2023-05-22T10:42:09.721Z,46.9625
2023-05-22T10:43:10.572Z,49.5630
2023-05-22T10:44:11.394Z,45.8094
2023-05-22T10:45:12.533Z,46.6363
2023-05-22T10:46:13.631Z,48.7107
2023-05-22T10:47:14.413Z,49.9533
2023-05-22T10:48:15.379Z,46.4597
2023-05-22T10:49:16.339Z,49.5620
2023-05-22T10:50:17.301Z,48.8538
2023-05-22T10:51:18.194Z,49.7958
2023-05-22T10:52:19.203Z,46.2024
2023-05-22T10:53:20.120Z,47.6214
2023-05-22T10:54:20.831Z,46.8867
2023-05-22T10:55:21.736Z,46.6774
2023-05-22T10:56:25.094Z,45.4027
2023-05-22T10:57:24.020Z,47.4428
2023-05-22T10:58:25.025Z,47.5005
2023-05-22T10:59:25.933Z,46.8652
2023-05-22T11:00:27.001Z,45.3079
2023-05-22T11:01:27.826Z,45.6328
2023-05-22T11:02:29.122Z,45.8675
2023-05-22T11:03:29.590Z,47.3856
2023-05-22T11:04:30.545Z,45.5633
2023-05-22T11:06:31.356Z,46.0218
2023-05-22T11:07:32.583Z,47.1884
2023-05-22T11:08:32.582Z,47.5248
2023-05-22T11:09:33.926Z,47.6161
2023-05-22T11:10:34.836Z,49.1433
2023-05-22T11:11:35.966Z,48.9760
2023-05-22T11:12:36.941Z,46.6880
2023-05-22T11:13:37.762Z,49.1600
2023-05-22T11:14:38.671Z,45.6990
2023-05-22T11:15:39.583Z,43.5585
2023-05-22T11:16:40.609Z,42.5274
2023-05-22T11:17:41.703Z,46.9865
2023-05-22T11:18:41.661Z,48.2028
2023-05-22T11:19:42.673Z,48.8470
2023-05-22T11:20:43.774Z,47.8159
2023-05-22T11:21:44.723Z,47.0252
2023-05-22T11:22:45.891Z,49.3977
2023-05-22T11:23:47.017Z,49.1527
2023-05-22T11:24:47.930Z,47.5130
2023-05-22T11:25:48.878Z,47.0711
2023-05-22T11:26:49.928Z,47.2175
2023-05-22T11:27:50.749Z,45.7711
2023-05-22T11:28:51.798Z,46.3227
2023-05-22T11:29:52.796Z,47.0504
2023-05-22T11:30:54.040Z,45.9960
2023-05-22T11:31:54.098Z,45.7529
2023-05-22T11:32:55.053Z,47.6409
2023-05-22T11:33:56.234Z,47.7519
2023-05-22T11:34:57.016Z,47.4359
2023-05-22T11:35:57.989Z,47.7862
2023-05-22T11:36:59.179Z,45.4262
2023-05-22T11:38:00.283Z,45.6888
2023-05-22T11:39:01.163Z,46.1250
2023-05-22T11:40:02.081Z,45.4654
2023-05-22T11:41:03.029Z,45.0482
2023-05-22T11:42:04.162Z,46.3502
2023-05-22T11:43:05.024Z,44.5358
2023-05-22T11:44:05.717Z,41.5876
2023-05-22T11:45:06.636Z,42.8668
2023-05-22T11:46:07.800Z,41.3792
2023-05-22T11:47:07.738Z,41.3277
2023-05-22T11:48:08.912Z,40.8764
2023-05-22T11:49:09.863Z,44.0381
2023-05-22T11:50:10.967Z,37.6788
2023-05-22T11:51:11.499Z,38.9875
2023-05-22T11:52:12.444Z,39.5114
2023-05-22T11:53:13.445Z,41.0259
2023-05-22T11:54:14.390Z,39.4432
2023-05-22T11:55:15.380Z,42.2255
2023-05-22T11:56:16.331Z,44.3039
2023-05-22T11:57:17.205Z,43.5807
2023-05-22T11:58:18.334Z,44.5455
2023-05-22T11:59:19.365Z,43.0467
2023-05-22T12:00:19.582Z,40.8028
2023-05-22T12:01:20.777Z,41.8978
2023-05-22T12:02:21.779Z,41.3377
2023-05-22T12:03:25.162Z,44.9888
2023-05-22T12:04:24.533Z,43.7135
2023-05-22T12:05:25.556Z,43.1267
2023-05-22T12:06:25.476Z,43.2113
2023-05-22T12:07:26.672Z,43.1309
2023-05-22T12:08:27.598Z,41.8165
2023-05-22T12:09:27.993Z,42.7318
2023-05-22T12:10:28.771Z,41.9312
2023-05-22T12:11:29.130Z,40.3336
2023-05-22T12:12:30.112Z,39.7444
2023-05-22T12:13:31.002Z,40.2326
2023-05-22T12:14:31.974Z,41.3313
2023-05-22T12:15:32.415Z,41.2212
2023-05-22T12:16:33.243Z,43.3207
2023-05-22T12:17:34.312Z,40.7902
2023-05-22T12:18:34.709Z,40.2585
2023-05-22T12:19:35.916Z,41.1532
2023-05-22T12:20:35.936Z,36.7578
2023-05-22T12:21:36.733Z,38.9987
2023-05-22T12:22:37.909Z,40.7167
2023-05-22T12:23:38.811Z,37.3175
2023-05-22T12:24:39.804Z,40.5583
2023-05-22T12:25:40.881Z,40.9033
2023-05-22T12:26:42.044Z,37.2847
2023-05-22T12:27:43.050Z,37.2438
2023-05-22T12:28:43.990Z,39.4834
2023-05-22T12:29:44.923Z,38.1192
2023-05-22T12:30:45.906Z,37.7709
2023-05-22T12:31:46.922Z,39.1571
2023-05-22T12:32:47.082Z,37.0439
2023-05-22T12:33:48.107Z,37.7775
2023-05-22T12:34:49.066Z,39.2594
2023-05-22T12:35:50.145Z,38.6988
2023-05-22T12:36:50.967Z,38.7267
2023-05-22T12:37:52.052Z,38.8863
2023-05-22T12:38:53.053Z,42.2785
2023-05-22T12:39:53.992Z,39.0496
2023-05-22T12:40:54.982Z,36.9643
2023-05-22T12:41:55.919Z,36.3745
2023-05-22T12:42:56.955Z,36.8490
2023-05-22T12:43:57.994Z,37.5905
2023-05-22T12:44:58.770Z,37.9723
2023-05-22T12:46:01.741Z,38.2953
2023-05-22T12:47:00.223Z,37.3006
2023-05-22T12:48:01.336Z,42.6208
2023-05-22T12:49:02.446Z,42.7451
2023-05-22T12:50:03.389Z,42.4262
2023-05-22T12:51:04.308Z,44.6550
2023-05-22T12:52:05.452Z,43.2618
2023-05-22T12:53:06.619Z,44.5290
2023-05-22T12:54:07.616Z,44.5315
2023-05-22T12:55:08.575Z,38.6195
2023-05-22T12:56:09.781Z,40.6452
2023-05-22T12:57:10.521Z,36.0107
2023-05-22T12:58:11.269Z,36.8103
2023-05-22T12:59:12.380Z,38.9463
2023-05-22T13:00:13.299Z,37.1700
2023-05-22T13:01:14.492Z,37.8559
2023-05-22T13:02:15.607Z,38.4408
2023-05-22T13:03:16.648Z,36.0239
2023-05-22T13:04:17.636Z,34.3700
2023-05-22T13:05:18.771Z,35.5546
2023-05-22T13:06:19.856Z,37.5151
2023-05-22T13:07:20.799Z,38.4324
2023-05-22T13:08:21.942Z,35.9529
2023-05-22T13:09:22.952Z,36.5766
2023-05-22T13:10:23.911Z,36.8757
2023-05-22T13:11:24.932Z,33.1691
2023-05-22T13:12:25.606Z,36.5561
2023-05-22T13:13:26.775Z,36.1776
2023-05-22T13:14:27.517Z,36.7327
2023-05-22T13:15:28.553Z,34.6795
2023-05-22T13:16:28.615Z,36.3429
2023-05-22T13:17:29.702Z,35.7779
2023-05-22T13:18:30.766Z,36.6097
2023-05-22T13:19:30.945Z,34.4000
2023-05-22T13:20:31.753Z,35.6966
2023-05-22T13:21:31.912Z,36.3001
2023-05-22T13:22:32.893Z,36.9352
2023-05-22T13:23:34.131Z,37.0441
2023-05-22T13:24:35.071Z,37.8313
2023-05-22T13:25:36.059Z,37.4172
2023-05-22T13:26:37.119Z,37.3846
2023-05-22T13:27:37.849Z,36.4484
2023-05-22T13:28:38.830Z,36.4844
2023-05-22T13:29:39.828Z,36.8884
2023-05-22T13:30:41.053Z,30.7734
2023-05-22T13:31:40.949Z,31.6027
2023-05-22T13:32:42.064Z,34.2082
2023-05-22T13:33:43.293Z,35.3610
2023-05-22T13:34:43.814Z,36.7382
2023-05-22T13:35:44.515Z,38.3790
2023-05-22T13:36:45.279Z,36.1956
2023-05-22T13:38:47.202Z,37.0649
2023-05-22T13:39:48.209Z,37.7023
2023-05-22T13:41:49.679Z,37.0347
2023-05-22T13:42:51.087Z,40.0686
2023-05-22T13:43:52.240Z,42.4377
2023-05-22T13:44:53.161Z,41.2756
2023-05-22T13:46:55.329Z,41.2356
2023-05-22T13:47:55.587Z,43.6724
2023-05-22T13:48:56.632Z,44.8262
2023-05-22T13:49:56.724Z,43.3917
2023-05-22T13:50:57.718Z,45.9827
2023-05-22T13:57:02.943Z,37.6088
2023-05-22T13:58:04.102Z,37.1810
2023-05-22T13:59:06.030Z,36.4007
2023-05-22T14:00:05.450Z,35.4915
2023-05-22T14:01:06.754Z,36.3341
2023-05-22T14:02:07.617Z,34.8121
2023-05-22T14:03:07.838Z,33.0139
2023-05-22T14:04:08.972Z,39.6899
2023-05-22T14:07:14.155Z,35.1374
2023-05-22T14:08:14.930Z,33.7595
2023-05-22T14:09:15.597Z,33.2513
2023-05-22T14:10:16.665Z,36.4677
2023-05-22T14:11:16.880Z,41.6129
2023-05-22T14:12:17.249Z,41.1834
2023-05-22T14:13:17.733Z,41.9657
2023-05-22T14:14:19.181Z,42.5524
2023-05-22T14:15:20.551Z,44.3727
2023-05-22T14:16:21.878Z,44.5559
2023-05-22T14:17:22.580Z,39.5167
2023-05-22T14:18:23.864Z,41.0527
2023-05-22T14:19:24.163Z,39.2002
2023-05-22T14:20:24.328Z,37.1229
2023-05-22T14:21:25.404Z,37.0060
2023-05-22T14:22:25.876Z,36.3897
2023-05-22T14:23:26.908Z,36.4574
2023-05-22T14:24:27.602Z,37.0507
2023-05-22T14:25:28.329Z,36.2056
2023-05-22T14:26:29.385Z,36.5266
2023-05-22T14:27:30.018Z,39.8032
2023-05-22T14:33:33.751Z,40.4814
2023-05-22T14:34:34.744Z,41.4989
2023-05-22T14:35:35.707Z,40.4567
2023-05-22T14:36:36.580Z,38.1023
2023-05-22T14:37:37.746Z,35.7434
2023-05-22T14:38:38.887Z,36.3968
2023-05-22T14:39:39.766Z,35.7888
2023-05-22T14:40:40.936Z,35.0419
2023-05-22T14:41:41.717Z,35.0256
2023-05-22T14:42:42.672Z,34.8393
2023-05-22T14:43:43.621Z,36.1746
2023-05-22T14:44:44.504Z,35.7659
2023-05-22T14:45:44.589Z,34.6024
2023-05-22T14:46:45.848Z,36.1916
2023-05-22T14:47:46.976Z,36.7852
2023-05-22T14:48:47.933Z,34.7488
2023-05-22T14:49:48.904Z,33.9746
2023-05-22T14:50:49.860Z,31.3887
2023-05-22T14:51:50.932Z,31.0164
2023-05-22T14:52:51.865Z,33.8564
2023-05-22T14:53:52.876Z,33.7561
2023-05-22T14:54:53.830Z,31.8654
2023-05-22T14:55:54.865Z,35.0069
2023-05-22T14:56:55.683Z,31.0662
2023-05-22T14:57:56.651Z,32.5876
2023-05-22T14:59:58.394Z,33.8889
2023-05-22T15:02:00.576Z,35.1325
2023-05-22T15:03:00.838Z,36.4425
2023-05-22T15:04:01.811Z,36.7982
2023-05-22T15:05:02.971Z,34.3807
2023-05-22T15:06:03.377Z,33.0342
2023-05-22T15:07:04.336Z,35.2086
2023-05-22T15:08:04.383Z,33.3065
2023-05-22T15:09:05.242Z,32.5674
2023-05-22T15:10:06.243Z,31.2251
2023-05-22T15:11:07.494Z,33.1063
2023-05-22T15:12:08.603Z,32.8792
2023-05-22T15:13:09.209Z,35.7229
2023-05-22T15:16:12.374Z,35.5772
2023-05-22T15:18:14.825Z,38.5777
2023-05-22T15:19:15.721Z,38.3880
2023-05-22T15:20:15.616Z,35.2464
2023-05-22T15:21:16.783Z,39.6744
2023-05-22T15:22:19.741Z,41.6461
2023-05-22T15:23:18.820Z,39.1221
2023-05-22T15:27:21.258Z,42.6742
2023-05-22T15:28:22.379Z,43.0478
2023-05-22T15:29:23.280Z,42.3489
2023-05-22T15:30:24.037Z,42.8493
2023-05-22T15:31:25.117Z,42.9524
2023-05-22T15:32:25.146Z,42.6099
2023-05-22T15:33:26.017Z,44.7374
2023-05-22T15:34:26.889Z,43.6005
2023-05-22T15:35:27.846Z,42.6951
2023-05-22T15:36:28.850Z,43.5144
2023-05-22T15:37:32.162Z,43.2045
2023-05-22T15:38:30.003Z,42.5892
2023-05-22T15:39:30.988Z,44.3773
2023-05-22T15:40:31.750Z,44.0082
2023-05-22T15:41:32.910Z,45.5535
2023-05-22T15:42:33.513Z,45.9580
2023-05-22T15:43:34.460Z,45.1944
2023-05-22T15:44:35.397Z,43.2701
2023-05-22T15:45:36.500Z,43.7963
2023-05-22T15:46:37.043Z,44.4794
2023-05-22T15:47:38.228Z,44.3925
2023-05-22T15:48:38.168Z,43.8971
2023-05-22T15:50:40.087Z,44.3745
2023-05-22T15:51:41.094Z,44.3303
2023-05-22T15:52:42.012Z,44.8111
2023-05-22T15:53:43.099Z,50.3767
2023-05-22T15:54:44.067Z,49.0746
2023-05-22T15:55:44.214Z,52.4007
2023-05-22T15:56:45.210Z,50.3448
2023-05-22T15:57:46.209Z,47.7306
2023-05-22T15:58:47.227Z,46.6765
2023-05-22T15:59:48.308Z,49.7357
2023-05-22T16:00:48.817Z,51.1053
2023-05-22T16:01:48.910Z,54.7367
2023-05-22T16:02:49.394Z,56.2926
2023-05-22T16:03:50.425Z,57.1562
2023-05-22T16:04:51.426Z,61.1451
2023-05-22T16:05:52.384Z,56.0721
2023-05-22T16:06:53.458Z,54.5201
2023-05-22T16:07:54.503Z,52.9960
2023-05-22T16:08:55.599Z,54.7905
2023-05-22T16:09:56.650Z,42.8407
2023-05-22T16:10:56.684Z,41.8332
2023-05-22T16:11:57.421Z,41.4879
2023-05-22T16:12:58.476Z,38.2419
2023-05-22T16:13:59.535Z,40.6524
2023-05-22T16:15:01.937Z,39.1006
2023-05-22T16:16:01.586Z,40.5893
2023-05-22T16:17:02.562Z,41.9304
2023-05-22T16:18:03.710Z,37.9854
2023-05-22T16:19:04.973Z,36.8036
2023-05-22T16:20:05.041Z,39.6012
2023-05-22T16:21:05.890Z,38.8405
2023-05-22T16:22:06.985Z,37.5517
2023-05-22T16:23:07.698Z,36.6116